sensor_id;sensor_type;location;lat;lon;timestamp;P1;durP1;ratioP1;P2;durP2;ratioP2
33672;SDS011;20011;51.510;9.942;2022-07-12T00:02:06;1.15;;;1.08;;
33672;SDS011;20011;51.510;9.942;2022-07-12T00:04:33;1.52;;;1.42;;
33672;SDS011;20011;51.510;9.942;2022-07-12T00:07:01;1.30;;;1.20;;
33672;SDS011;20011;51.510;9.942;2022-07-12T00:09:28;1.75;;;1.15;;
33672;SDS011;20011;51.510;9.942;2022-07-12T00:11:55;4.18;;;1.30;;
33672;SDS011;20011;51.510;9.942;2022-07-12T00:14:24;1.27;;;1.17;;
33672;SDS011;20011;51.510;9.942;2022-07-12T00:16:52;1.38;;;1.27;;
33672;SDS011;20011;51.510;9.942;2022-07-12T00:19:19;1.95;;;1.30;;
33672;SDS011;20011;51.510;9.942;2022-07-12T00:21:47;1.38;;;1.27;;
33672;SDS011;20011;51.510;9.942;2022-07-12T00:24:14;1.35;;;1.25;;
33672;SDS011;20011;51.510;9.942;2022-07-12T00:26:42;1.63;;;1.25;;
33672;SDS011;20011;51.510;9.942;2022-07-12T00:29:09;1.20;;;1.10;;
33672;SDS011;20011;51.510;9.942;2022-07-12T00:31:37;2.22;;;1.13;;
33672;SDS011;20011;51.510;9.942;2022-07-12T00:34:05;1.63;;;1.52;;
33672;SDS011;20011;51.510;9.942;2022-07-12T00:36:32;1.48;;;1.30;;
33672;SDS011;20011;51.510;9.942;2022-07-12T00:38:59;2.22;;;1.27;;
33672;SDS011;20011;51.510;9.942;2022-07-12T00:41:27;1.30;;;1.20;;
33672;SDS011;20011;51.510;9.942;2022-07-12T00:43:54;1.20;;;1.10;;
33672;SDS011;20011;51.510;9.942;2022-07-12T00:46:22;1.20;;;1.20;;
33672;SDS011;20011;51.510;9.942;2022-07-12T00:48:50;2.00;;;1.50;;
33672;SDS011;20011;51.510;9.942;2022-07-12T00:51:18;1.33;;;1.23;;
33672;SDS011;20011;51.510;9.942;2022-07-12T00:53:45;1.85;;;1.50;;
33672;SDS011;20011;51.510;9.942;2022-07-12T00:56:13;3.22;;;1.10;;
33672;SDS011;20011;51.510;9.942;2022-07-12T00:58:41;4.10;;;1.60;;
33672;SDS011;20011;51.510;9.942;2022-07-12T01:01:10;1.40;;;1.23;;
33672;SDS011;20011;51.510;9.942;2022-07-12T01:03:37;1.35;;;1.25;;
33672;SDS011;20011;51.510;9.942;2022-07-12T01:06:06;2.58;;;1.35;;
33672;SDS011;20011;51.510;9.942;2022-07-12T01:08:34;1.17;;;1.17;;
33672;SDS011;20011;51.510;9.942;2022-07-12T01:11:02;1.00;;;0.90;;
33672;SDS011;20011;51.510;9.942;2022-07-12T01:13:30;1.25;;;1.15;;
33672;SDS011;20011;51.510;9.942;2022-07-12T01:15:57;1.10;;;0.90;;
33672;SDS011;20011;51.510;9.942;2022-07-12T01:18:25;1.15;;;1.10;;
33672;SDS011;20011;51.510;9.942;2022-07-12T01:20:54;3.33;;;2.10;;
33672;SDS011;20011;51.510;9.942;2022-07-12T01:23:22;1.40;;;1.30;;
33672;SDS011;20011;51.510;9.942;2022-07-12T01:25:50;1.63;;;1.48;;
33672;SDS011;20011;51.510;9.942;2022-07-12T01:28:17;3.08;;;1.52;;
33672;SDS011;20011;51.510;9.942;2022-07-12T01:30:45;4.80;;;1.17;;
33672;SDS011;20011;51.510;9.942;2022-07-12T01:33:13;1.65;;;1.00;;
33672;SDS011;20011;51.510;9.942;2022-07-12T01:35:41;1.00;;;1.00;;
33672;SDS011;20011;51.510;9.942;2022-07-12T01:38:09;1.50;;;1.40;;
33672;SDS011;20011;51.510;9.942;2022-07-12T01:40:36;3.33;;;1.80;;
33672;SDS011;20011;51.510;9.942;2022-07-12T01:43:04;5.43;;;2.30;;
33672;SDS011;20011;51.510;9.942;2022-07-12T01:45:33;3.13;;;2.53;;
33672;SDS011;20011;51.510;9.942;2022-07-12T01:48:00;2.72;;;2.22;;
33672;SDS011;20011;51.510;9.942;2022-07-12T01:50:27;2.50;;;2.05;;
33672;SDS011;20011;51.510;9.942;2022-07-12T01:52:55;3.83;;;2.38;;
33672;SDS011;20011;51.510;9.942;2022-07-12T01:55:22;4.05;;;3.05;;
33672;SDS011;20011;51.510;9.942;2022-07-12T01:57:50;12.07;;;3.28;;
33672;SDS011;20011;51.510;9.942;2022-07-12T02:00:17;3.80;;;2.70;;
33672;SDS011;20011;51.510;9.942;2022-07-12T02:02:46;8.02;;;2.50;;
33672;SDS011;20011;51.510;9.942;2022-07-12T02:05:14;1.63;;;1.52;;
33672;SDS011;20011;51.510;9.942;2022-07-12T02:07:41;5.38;;;1.67;;
33672;SDS011;20011;51.510;9.942;2022-07-12T02:10:09;2.25;;;1.50;;
33672;SDS011;20011;51.510;9.942;2022-07-12T02:12:36;3.17;;;1.55;;
33672;SDS011;20011;51.510;9.942;2022-07-12T02:15:05;3.17;;;1.40;;
33672;SDS011;20011;51.510;9.942;2022-07-12T02:17:33;1.63;;;1.50;;
33672;SDS011;20011;51.510;9.942;2022-07-12T02:20:00;1.92;;;1.73;;
33672;SDS011;20011;51.510;9.942;2022-07-12T02:22:28;2.13;;;1.60;;
33672;SDS011;20011;51.510;9.942;2022-07-12T02:24:55;10.23;;;1.90;;
33672;SDS011;20011;51.510;9.942;2022-07-12T02:27:22;1.73;;;1.60;;
33672;SDS011;20011;51.510;9.942;2022-07-12T02:29:50;2.55;;;1.60;;
33672;SDS011;20011;51.510;9.942;2022-07-12T02:32:17;1.67;;;1.58;;
33672;SDS011;20011;51.510;9.942;2022-07-12T02:34:45;3.28;;;2.58;;
33672;SDS011;20011;51.510;9.942;2022-07-12T02:37:12;5.65;;;2.08;;
33672;SDS011;20011;51.510;9.942;2022-07-12T02:39:41;3.50;;;2.58;;
33672;SDS011;20011;51.510;9.942;2022-07-12T02:42:08;2.13;;;1.92;;
33672;SDS011;20011;51.510;9.942;2022-07-12T02:44:35;2.55;;;2.35;;
33672;SDS011;20011;51.510;9.942;2022-07-12T02:47:03;4.28;;;2.15;;
33672;SDS011;20011;51.510;9.942;2022-07-12T02:49:30;4.80;;;3.03;;
33672;SDS011;20011;51.510;9.942;2022-07-12T02:51:58;4.15;;;2.80;;
33672;SDS011;20011;51.510;9.942;2022-07-12T02:54:25;8.77;;;3.20;;
33672;SDS011;20011;51.510;9.942;2022-07-12T02:56:52;9.30;;;3.53;;
33672;SDS011;20011;51.510;9.942;2022-07-12T02:59:20;6.25;;;2.50;;
33672;SDS011;20011;51.510;9.942;2022-07-12T03:01:47;4.07;;;2.80;;
33672;SDS011;20011;51.510;9.942;2022-07-12T03:04:15;2.83;;;2.60;;
33672;SDS011;20011;51.510;9.942;2022-07-12T03:06:42;7.57;;;2.92;;
33672;SDS011;20011;51.510;9.942;2022-07-12T03:09:10;4.20;;;2.35;;
33672;SDS011;20011;51.510;9.942;2022-07-12T03:11:38;2.65;;;2.38;;
33672;SDS011;20011;51.510;9.942;2022-07-12T03:14:06;5.72;;;2.47;;
33672;SDS011;20011;51.510;9.942;2022-07-12T03:16:33;4.53;;;2.50;;
33672;SDS011;20011;51.510;9.942;2022-07-12T03:19:01;6.97;;;4.35;;
33672;SDS011;20011;51.510;9.942;2022-07-12T03:21:28;9.50;;;4.50;;
33672;SDS011;20011;51.510;9.942;2022-07-12T03:23:55;9.65;;;4.63;;
33672;SDS011;20011;51.510;9.942;2022-07-12T03:26:23;19.00;;;4.90;;
33672;SDS011;20011;51.510;9.942;2022-07-12T03:28:50;25.75;;;5.07;;
33672;SDS011;20011;51.510;9.942;2022-07-12T03:31:18;18.77;;;5.97;;
33672;SDS011;20011;51.510;9.942;2022-07-12T03:33:45;20.05;;;5.90;;
33672;SDS011;20011;51.510;9.942;2022-07-12T03:36:13;17.40;;;5.10;;
33672;SDS011;20011;51.510;9.942;2022-07-12T03:38:40;24.75;;;6.95;;
33672;SDS011;20011;51.510;9.942;2022-07-12T03:41:09;9.63;;;5.07;;
33672;SDS011;20011;51.510;9.942;2022-07-12T03:43:36;25.63;;;5.10;;
33672;SDS011;20011;51.510;9.942;2022-07-12T03:46:03;12.13;;;4.97;;
33672;SDS011;20011;51.510;9.942;2022-07-12T03:48:31;11.32;;;4.63;;
33672;SDS011;20011;51.510;9.942;2022-07-12T03:50:58;7.55;;;4.18;;
33672;SDS011;20011;51.510;9.942;2022-07-12T03:53:26;16.55;;;5.00;;
33672;SDS011;20011;51.510;9.942;2022-07-12T03:55:53;17.35;;;6.18;;
33672;SDS011;20011;51.510;9.942;2022-07-12T03:58:20;19.95;;;5.60;;
33672;SDS011;20011;51.510;9.942;2022-07-12T04:00:48;7.00;;;5.03;;
33672;SDS011;20011;51.510;9.942;2022-07-12T04:03:15;7.20;;;4.45;;
33672;SDS011;20011;51.510;9.942;2022-07-12T04:05:42;9.32;;;3.80;;
33672;SDS011;20011;51.510;9.942;2022-07-12T04:08:10;9.50;;;4.45;;
33672;SDS011;20011;51.510;9.942;2022-07-12T04:10:37;7.25;;;2.90;;
33672;SDS011;20011;51.510;9.942;2022-07-12T04:13:05;6.57;;;3.10;;
33672;SDS011;20011;51.510;9.942;2022-07-12T04:15:32;12.07;;;3.47;;
33672;SDS011;20011;51.510;9.942;2022-07-12T04:17:59;7.07;;;3.38;;
33672;SDS011;20011;51.510;9.942;2022-07-12T04:20:27;6.35;;;3.78;;
33672;SDS011;20011;51.510;9.942;2022-07-12T04:22:54;9.93;;;4.22;;
33672;SDS011;20011;51.510;9.942;2022-07-12T04:25:22;9.05;;;4.53;;
33672;SDS011;20011;51.510;9.942;2022-07-12T04:27:51;19.50;;;4.68;;
33672;SDS011;20011;51.510;9.942;2022-07-12T04:30:19;7.75;;;5.63;;
33672;SDS011;20011;51.510;9.942;2022-07-12T04:32:47;8.88;;;5.03;;
33672;SDS011;20011;51.510;9.942;2022-07-12T04:35:15;8.35;;;5.22;;
33672;SDS011;20011;51.510;9.942;2022-07-12T04:37:42;6.43;;;4.35;;
33672;SDS011;20011;51.510;9.942;2022-07-12T04:40:10;7.10;;;4.10;;
33672;SDS011;20011;51.510;9.942;2022-07-12T04:42:37;5.65;;;4.15;;
33672;SDS011;20011;51.510;9.942;2022-07-12T04:45:05;6.53;;;4.20;;
33672;SDS011;20011;51.510;9.942;2022-07-12T04:47:35;10.20;;;4.63;;
33672;SDS011;20011;51.510;9.942;2022-07-12T04:50:06;5.05;;;3.92;;
33672;SDS011;20011;51.510;9.942;2022-07-12T04:52:34;6.75;;;4.22;;
33672;SDS011;20011;51.510;9.942;2022-07-12T04:55:01;5.55;;;3.67;;
33672;SDS011;20011;51.510;9.942;2022-07-12T04:57:29;5.88;;;4.15;;
33672;SDS011;20011;51.510;9.942;2022-07-12T04:59:56;10.38;;;4.95;;
33672;SDS011;20011;51.510;9.942;2022-07-12T05:02:23;6.97;;;4.43;;
33672;SDS011;20011;51.510;9.942;2022-07-12T05:04:52;7.07;;;4.22;;
33672;SDS011;20011;51.510;9.942;2022-07-12T05:07:19;4.65;;;4.05;;
33672;SDS011;20011;51.510;9.942;2022-07-12T05:09:46;13.27;;;5.57;;
33672;SDS011;20011;51.510;9.942;2022-07-12T05:12:14;12.15;;;5.13;;
33672;SDS011;20011;51.510;9.942;2022-07-12T05:14:41;13.73;;;5.07;;
33672;SDS011;20011;51.510;9.942;2022-07-12T05:17:08;7.90;;;4.90;;
33672;SDS011;20011;51.510;9.942;2022-07-12T05:19:39;8.25;;;4.85;;
33672;SDS011;20011;51.510;9.942;2022-07-12T05:22:06;11.30;;;4.15;;
33672;SDS011;20011;51.510;9.942;2022-07-12T05:24:33;9.80;;;4.88;;
33672;SDS011;20011;51.510;9.942;2022-07-12T05:27:01;20.33;;;5.22;;
33672;SDS011;20011;51.510;9.942;2022-07-12T05:29:28;14.85;;;5.18;;
33672;SDS011;20011;51.510;9.942;2022-07-12T05:31:56;13.40;;;5.03;;
33672;SDS011;20011;51.510;9.942;2022-07-12T05:34:23;13.82;;;4.80;;
33672;SDS011;20011;51.510;9.942;2022-07-12T05:36:51;18.77;;;5.35;;
33672;SDS011;20011;51.510;9.942;2022-07-12T05:39:18;11.95;;;5.03;;
33672;SDS011;20011;51.510;9.942;2022-07-12T05:41:46;9.38;;;5.30;;
33672;SDS011;20011;51.510;9.942;2022-07-12T05:44:13;13.98;;;5.57;;
33672;SDS011;20011;51.510;9.942;2022-07-12T05:46:43;14.65;;;5.30;;
33672;SDS011;20011;51.510;9.942;2022-07-12T05:49:11;11.13;;;4.50;;
33672;SDS011;20011;51.510;9.942;2022-07-12T05:51:38;8.10;;;4.68;;
33672;SDS011;20011;51.510;9.942;2022-07-12T05:54:25;9.48;;;4.72;;
33672;SDS011;20011;51.510;9.942;2022-07-12T05:56:52;5.97;;;4.72;;
33672;SDS011;20011;51.510;9.942;2022-07-12T05:59:19;4.85;;;4.40;;
33672;SDS011;20011;51.510;9.942;2022-07-12T06:01:47;4.30;;;3.90;;
33672;SDS011;20011;51.510;9.942;2022-07-12T06:04:14;5.63;;;4.53;;
33672;SDS011;20011;51.510;9.942;2022-07-12T06:06:41;9.10;;;5.65;;
33672;SDS011;20011;51.510;9.942;2022-07-12T06:09:09;6.68;;;4.50;;
33672;SDS011;20011;51.510;9.942;2022-07-12T06:11:36;6.43;;;4.35;;
33672;SDS011;20011;51.510;9.942;2022-07-12T06:14:03;4.72;;;3.97;;
33672;SDS011;20011;51.510;9.942;2022-07-12T06:16:31;9.45;;;4.28;;
33672;SDS011;20011;51.510;9.942;2022-07-12T06:18:58;11.65;;;4.47;;
33672;SDS011;20011;51.510;9.942;2022-07-12T06:21:26;7.43;;;4.28;;
33672;SDS011;20011;51.510;9.942;2022-07-12T06:23:53;6.80;;;4.45;;
33672;SDS011;20011;51.510;9.942;2022-07-12T06:26:20;6.47;;;5.22;;
33672;SDS011;20011;51.510;9.942;2022-07-12T06:28:48;6.82;;;4.50;;
33672;SDS011;20011;51.510;9.942;2022-07-12T06:31:15;5.22;;;4.43;;
33672;SDS011;20011;51.510;9.942;2022-07-12T06:33:43;4.35;;;3.80;;
33672;SDS011;20011;51.510;9.942;2022-07-12T06:36:10;5.40;;;3.90;;
33672;SDS011;20011;51.510;9.942;2022-07-12T06:38:37;4.20;;;3.70;;
33672;SDS011;20011;51.510;9.942;2022-07-12T06:41:13;5.20;;;3.63;;
33672;SDS011;20011;51.510;9.942;2022-07-12T06:43:40;3.78;;;3.15;;
33672;SDS011;20011;51.510;9.942;2022-07-12T06:46:08;4.05;;;3.65;;
33672;SDS011;20011;51.510;9.942;2022-07-12T06:48:35;4.25;;;3.72;;
33672;SDS011;20011;51.510;9.942;2022-07-12T06:51:02;4.35;;;3.22;;
33672;SDS011;20011;51.510;9.942;2022-07-12T06:53:30;3.70;;;3.20;;
33672;SDS011;20011;51.510;9.942;2022-07-12T06:55:57;4.70;;;3.10;;
33672;SDS011;20011;51.510;9.942;2022-07-12T06:58:24;7.93;;;3.72;;
33672;SDS011;20011;51.510;9.942;2022-07-12T07:00:52;3.38;;;3.08;;
33672;SDS011;20011;51.510;9.942;2022-07-12T07:03:20;4.80;;;3.30;;
33672;SDS011;20011;51.510;9.942;2022-07-12T07:05:47;5.07;;;2.92;;
33672;SDS011;20011;51.510;9.942;2022-07-12T07:08:15;4.55;;;2.88;;
33672;SDS011;20011;51.510;9.942;2022-07-12T07:10:42;4.47;;;2.97;;
33672;SDS011;20011;51.510;9.942;2022-07-12T07:13:10;6.25;;;3.53;;
33672;SDS011;20011;51.510;9.942;2022-07-12T07:15:40;5.68;;;3.30;;
33672;SDS011;20011;51.510;9.942;2022-07-12T07:18:09;5.65;;;2.78;;
33672;SDS011;20011;51.510;9.942;2022-07-12T07:20:36;8.43;;;3.55;;
33672;SDS011;20011;51.510;9.942;2022-07-12T07:23:04;6.68;;;3.45;;
33672;SDS011;20011;51.510;9.942;2022-07-12T07:25:32;5.45;;;3.75;;
33672;SDS011;20011;51.510;9.942;2022-07-12T07:28:00;3.45;;;3.15;;
33672;SDS011;20011;51.510;9.942;2022-07-12T07:30:27;8.75;;;3.17;;
33672;SDS011;20011;51.510;9.942;2022-07-12T07:33:13;4.28;;;3.50;;
33672;SDS011;20011;51.510;9.942;2022-07-12T07:35:40;5.40;;;3.15;;
33672;SDS011;20011;51.510;9.942;2022-07-12T07:38:10;3.90;;;2.85;;
33672;SDS011;20011;51.510;9.942;2022-07-12T07:40:37;2.60;;;2.40;;
33672;SDS011;20011;51.510;9.942;2022-07-12T07:43:04;3.45;;;2.72;;
33672;SDS011;20011;51.510;9.942;2022-07-12T07:45:32;3.53;;;3.00;;
33672;SDS011;20011;51.510;9.942;2022-07-12T07:47:59;3.00;;;2.72;;
33672;SDS011;20011;51.510;9.942;2022-07-12T07:50:46;3.10;;;2.80;;
33672;SDS011;20011;51.510;9.942;2022-07-12T07:53:14;3.17;;;2.45;;
33672;SDS011;20011;51.510;9.942;2022-07-12T07:55:41;4.22;;;2.55;;
33672;SDS011;20011;51.510;9.942;2022-07-12T07:58:09;2.80;;;2.50;;
33672;SDS011;20011;51.510;9.942;2022-07-12T08:00:36;3.10;;;2.80;;
33672;SDS011;20011;51.510;9.942;2022-07-12T08:03:03;3.17;;;2.25;;
33672;SDS011;20011;51.510;9.942;2022-07-12T08:05:31;2.50;;;2.25;;
33672;SDS011;20011;51.510;9.942;2022-07-12T08:07:58;2.30;;;2.08;;
33672;SDS011;20011;51.510;9.942;2022-07-12T08:10:25;1.67;;;1.58;;
33672;SDS011;20011;51.510;9.942;2022-07-12T08:12:53;2.05;;;1.60;;
33672;SDS011;20011;51.510;9.942;2022-07-12T08:15:20;1.73;;;1.52;;
33672;SDS011;20011;51.510;9.942;2022-07-12T08:17:48;4.15;;;1.27;;
33672;SDS011;20011;51.510;9.942;2022-07-12T08:20:19;1.65;;;1.55;;
33672;SDS011;20011;51.510;9.942;2022-07-12T08:23:08;1.67;;;1.58;;
33672;SDS011;20011;51.510;9.942;2022-07-12T08:25:35;1.73;;;1.58;;
33672;SDS011;20011;51.510;9.942;2022-07-12T08:28:03;1.45;;;1.30;;
33672;SDS011;20011;51.510;9.942;2022-07-12T08:30:30;5.00;;;1.25;;
33672;SDS011;20011;51.510;9.942;2022-07-12T08:32:57;1.88;;;1.60;;
33672;SDS011;20011;51.510;9.942;2022-07-12T08:35:25;1.83;;;1.35;;
33672;SDS011;20011;51.510;9.942;2022-07-12T08:37:52;1.63;;;1.52;;
33672;SDS011;20011;51.510;9.942;2022-07-12T08:40:20;5.00;;;2.15;;
33672;SDS011;20011;51.510;9.942;2022-07-12T08:42:48;4.72;;;1.50;;
33672;SDS011;20011;51.510;9.942;2022-07-12T08:45:15;2.15;;;1.50;;
33672;SDS011;20011;51.510;9.942;2022-07-12T08:47:43;1.90;;;1.73;;
33672;SDS011;20011;51.510;9.942;2022-07-12T08:50:11;2.50;;;1.38;;
33672;SDS011;20011;51.510;9.942;2022-07-12T08:52:47;2.80;;;1.60;;
33672;SDS011;20011;51.510;9.942;2022-07-12T08:57:46;5.90;;;1.40;;
33672;SDS011;20011;51.510;9.942;2022-07-12T09:00:14;1.50;;;1.40;;
33672;SDS011;20011;51.510;9.942;2022-07-12T09:05:12;4.13;;;1.80;;
33672;SDS011;20011;51.510;9.942;2022-07-12T09:07:40;3.10;;;1.77;;
33672;SDS011;20011;51.510;9.942;2022-07-12T09:10:08;1.80;;;1.67;;
33672;SDS011;20011;51.510;9.942;2022-07-12T09:12:36;1.80;;;1.70;;
33672;SDS011;20011;51.510;9.942;2022-07-12T09:15:11;2.00;;;1.75;;
33672;SDS011;20011;51.510;9.942;2022-07-12T09:17:56;8.60;;;2.00;;
33672;SDS011;20011;51.510;9.942;2022-07-12T09:20:31;2.53;;;1.58;;
33672;SDS011;20011;51.510;9.942;2022-07-12T09:23:01;2.20;;;1.50;;
33672;SDS011;20011;51.510;9.942;2022-07-12T09:25:30;1.85;;;1.65;;
33672;SDS011;20011;51.510;9.942;2022-07-12T09:28:07;1.50;;;1.33;;
33672;SDS011;20011;51.510;9.942;2022-07-12T09:30:35;1.80;;;1.70;;
33672;SDS011;20011;51.510;9.942;2022-07-12T09:33:06;3.95;;;1.50;;
33672;SDS011;20011;51.510;9.942;2022-07-12T09:38:51;3.03;;;1.63;;
33672;SDS011;20011;51.510;9.942;2022-07-12T09:41:28;9.05;;;2.00;;
33672;SDS011;20011;51.510;9.942;2022-07-12T09:43:56;1.70;;;1.60;;
33672;SDS011;20011;51.510;9.942;2022-07-12T09:46:25;1.83;;;1.70;;
33672;SDS011;20011;51.510;9.942;2022-07-12T09:48:52;3.15;;;1.15;;
33672;SDS011;20011;51.510;9.942;2022-07-12T09:51:20;1.75;;;1.10;;
33672;SDS011;20011;51.510;9.942;2022-07-12T09:53:48;3.53;;;1.23;;
33672;SDS011;20011;51.510;9.942;2022-07-12T09:56:17;1.58;;;1.48;;
33672;SDS011;20011;51.510;9.942;2022-07-12T10:01:16;2.22;;;1.20;;
33672;SDS011;20011;51.510;9.942;2022-07-12T10:03:44;1.42;;;1.33;;
33672;SDS011;20011;51.510;9.942;2022-07-12T10:06:12;3.92;;;1.70;;
33672;SDS011;20011;51.510;9.942;2022-07-12T10:08:42;2.63;;;1.63;;
33672;SDS011;20011;51.510;9.942;2022-07-12T10:11:10;2.55;;;1.85;;
33672;SDS011;20011;51.510;9.942;2022-07-12T10:13:59;1.70;;;1.60;;
33672;SDS011;20011;51.510;9.942;2022-07-12T10:16:28;1.90;;;1.50;;
33672;SDS011;20011;51.510;9.942;2022-07-12T10:19:33;2.38;;;1.48;;
33672;SDS011;20011;51.510;9.942;2022-07-12T10:21:57;3.20;;;1.40;;
33672;SDS011;20011;51.510;9.942;2022-07-12T10:27:00;1.80;;;1.70;;
33672;SDS011;20011;51.510;9.942;2022-07-12T10:29:48;9.05;;;1.27;;
33672;SDS011;20011;51.510;9.942;2022-07-12T10:34:57;1.50;;;1.40;;
33672;SDS011;20011;51.510;9.942;2022-07-12T10:37:25;1.52;;;1.02;;
33672;SDS011;20011;51.510;9.942;2022-07-12T10:48:05;1.80;;;0.90;;
33672;SDS011;20011;51.510;9.942;2022-07-12T10:50:48;0.90;;;0.90;;
33672;SDS011;20011;51.510;9.942;2022-07-12T10:58:56;1.63;;;1.40;;
33672;SDS011;20011;51.510;9.942;2022-07-12T11:04:09;1.58;;;1.48;;
33672;SDS011;20011;51.510;9.942;2022-07-12T11:06:38;1.88;;;1.60;;
33672;SDS011;20011;51.510;9.942;2022-07-12T11:09:09;1.85;;;1.25;;
33672;SDS011;20011;51.510;9.942;2022-07-12T11:11:44;2.45;;;1.60;;
33672;SDS011;20011;51.510;9.942;2022-07-12T11:14:22;1.30;;;1.20;;
33672;SDS011;20011;51.510;9.942;2022-07-12T11:16:56;2.25;;;1.48;;
33672;SDS011;20011;51.510;9.942;2022-07-12T11:19:25;1.30;;;1.20;;
33672;SDS011;20011;51.510;9.942;2022-07-12T11:21:56;1.52;;;1.40;;
33672;SDS011;20011;51.510;9.942;2022-07-12T11:24:29;1.67;;;1.05;;
33672;SDS011;20011;51.510;9.942;2022-07-12T11:26:58;0.70;;;0.70;;
33672;SDS011;20011;51.510;9.942;2022-07-12T11:29:28;1.15;;;1.05;;
33672;SDS011;20011;51.510;9.942;2022-07-12T11:32:03;6.47;;;1.50;;
33672;SDS011;20011;51.510;9.942;2022-07-12T11:34:37;5.35;;;1.38;;
33672;SDS011;20011;51.510;9.942;2022-07-12T11:37:05;1.65;;;1.55;;
33672;SDS011;20011;51.510;9.942;2022-07-12T11:39:32;2.30;;;1.50;;
33672;SDS011;20011;51.510;9.942;2022-07-12T11:42:05;1.20;;;1.10;;
33672;SDS011;20011;51.510;9.942;2022-07-12T11:47:10;1.85;;;1.02;;
33672;SDS011;20011;51.510;9.942;2022-07-12T11:49:43;1.20;;;1.10;;
33672;SDS011;20011;51.510;9.942;2022-07-12T11:52:13;1.30;;;1.00;;
33672;SDS011;20011;51.510;9.942;2022-07-12T11:54:45;1.13;;;1.08;;
33672;SDS011;20011;51.510;9.942;2022-07-12T11:57:14;2.30;;;1.33;;
33672;SDS011;20011;51.510;9.942;2022-07-12T11:59:41;4.45;;;1.38;;
33672;SDS011;20011;51.510;9.942;2022-07-12T12:02:12;1.05;;;0.95;;
33672;SDS011;20011;51.510;9.942;2022-07-12T12:04:46;1.30;;;1.20;;
33672;SDS011;20011;51.510;9.942;2022-07-12T12:07:13;1.40;;;1.00;;
33672;SDS011;20011;51.510;9.942;2022-07-12T12:12:37;1.10;;;1.00;;
33672;SDS011;20011;51.510;9.942;2022-07-12T12:15:06;0.70;;;0.70;;
33672;SDS011;20011;51.510;9.942;2022-07-12T12:17:36;1.08;;;1.02;;
33672;SDS011;20011;51.510;9.942;2022-07-12T12:20:15;1.30;;;1.08;;
33672;SDS011;20011;51.510;9.942;2022-07-12T12:22:44;0.90;;;0.90;;
33672;SDS011;20011;51.510;9.942;2022-07-12T12:25:13;1.33;;;1.20;;
33672;SDS011;20011;51.510;9.942;2022-07-12T12:27:45;2.00;;;1.40;;
33672;SDS011;20011;51.510;9.942;2022-07-12T12:30:41;0.90;;;0.90;;
33672;SDS011;20011;51.510;9.942;2022-07-12T12:33:35;11.45;;;1.10;;
33672;SDS011;20011;51.510;9.942;2022-07-12T12:36:17;3.67;;;1.02;;
33672;SDS011;20011;51.510;9.942;2022-07-12T12:38:51;4.40;;;1.00;;
33672;SDS011;20011;51.510;9.942;2022-07-12T12:41:26;2.58;;;1.00;;
33672;SDS011;20011;51.510;9.942;2022-07-12T12:49:46;0.77;;;0.77;;
33672;SDS011;20011;51.510;9.942;2022-07-12T12:52:23;1.00;;;0.90;;
33672;SDS011;20011;51.510;9.942;2022-07-12T12:54:51;1.02;;;0.90;;
33672;SDS011;20011;51.510;9.942;2022-07-12T12:57:18;7.03;;;1.10;;
33672;SDS011;20011;51.510;9.942;2022-07-12T12:59:46;1.88;;;1.25;;
33672;SDS011;20011;51.510;9.942;2022-07-12T13:02:13;2.22;;;1.08;;
33672;SDS011;20011;51.510;9.942;2022-07-12T13:04:40;1.00;;;0.82;;
33672;SDS011;20011;51.510;9.942;2022-07-12T13:07:08;0.80;;;0.80;;
33672;SDS011;20011;51.510;9.942;2022-07-12T13:09:39;1.40;;;0.88;;
33672;SDS011;20011;51.510;9.942;2022-07-12T13:12:07;0.80;;;0.80;;
33672;SDS011;20011;51.510;9.942;2022-07-12T13:14:35;0.70;;;0.70;;
33672;SDS011;20011;51.510;9.942;2022-07-12T13:17:02;1.02;;;0.90;;
33672;SDS011;20011;51.510;9.942;2022-07-12T13:19:30;1.15;;;0.80;;
33672;SDS011;20011;51.510;9.942;2022-07-12T13:21:59;1.13;;;1.13;;
33672;SDS011;20011;51.510;9.942;2022-07-12T13:24:27;1.00;;;0.90;;
33672;SDS011;20011;51.510;9.942;2022-07-12T13:26:54;0.90;;;0.90;;
33672;SDS011;20011;51.510;9.942;2022-07-12T13:29:21;0.80;;;0.80;;
33672;SDS011;20011;51.510;9.942;2022-07-12T13:31:48;1.40;;;0.90;;
33672;SDS011;20011;51.510;9.942;2022-07-12T13:34:22;0.90;;;0.70;;
33672;SDS011;20011;51.510;9.942;2022-07-12T13:36:49;3.60;;;0.98;;
33672;SDS011;20011;51.510;9.942;2022-07-12T13:39:16;2.72;;;1.20;;
33672;SDS011;20011;51.510;9.942;2022-07-12T13:42:03;5.40;;;1.05;;
33672;SDS011;20011;51.510;9.942;2022-07-12T13:44:30;1.05;;;0.80;;
33672;SDS011;20011;51.510;9.942;2022-07-12T13:46:57;0.82;;;0.82;;
33672;SDS011;20011;51.510;9.942;2022-07-12T13:49:25;5.85;;;1.10;;
33672;SDS011;20011;51.510;9.942;2022-07-12T13:51:52;0.80;;;0.80;;
33672;SDS011;20011;51.510;9.942;2022-07-12T13:54:19;0.80;;;0.80;;
33672;SDS011;20011;51.510;9.942;2022-07-12T13:56:47;1.73;;;0.98;;
33672;SDS011;20011;51.510;9.942;2022-07-12T13:59:14;1.30;;;1.00;;
33672;SDS011;20011;51.510;9.942;2022-07-12T14:01:42;0.90;;;0.90;;
33672;SDS011;20011;51.510;9.942;2022-07-12T14:04:10;1.05;;;0.82;;
33672;SDS011;20011;51.510;9.942;2022-07-12T14:06:38;1.38;;;1.27;;
33672;SDS011;20011;51.510;9.942;2022-07-12T14:09:05;6.03;;;1.30;;
33672;SDS011;20011;51.510;9.942;2022-07-12T14:11:33;1.20;;;1.00;;
33672;SDS011;20011;51.510;9.942;2022-07-12T14:14:00;2.35;;;0.98;;
33672;SDS011;20011;51.510;9.942;2022-07-12T14:16:28;1.05;;;0.82;;
33672;SDS011;20011;51.510;9.942;2022-07-12T14:18:55;2.78;;;0.93;;
33672;SDS011;20011;51.510;9.942;2022-07-12T14:21:23;1.15;;;0.93;;
33672;SDS011;20011;51.510;9.942;2022-07-12T14:23:50;1.23;;;1.13;;
33672;SDS011;20011;51.510;9.942;2022-07-12T14:26:18;1.05;;;1.05;;
33672;SDS011;20011;51.510;9.942;2022-07-12T14:28:45;2.83;;;1.10;;
33672;SDS011;20011;51.510;9.942;2022-07-12T14:31:12;3.05;;;1.20;;
33672;SDS011;20011;51.510;9.942;2022-07-12T14:33:40;1.65;;;1.45;;
33672;SDS011;20011;51.510;9.942;2022-07-12T14:36:07;1.80;;;0.77;;
33672;SDS011;20011;51.510;9.942;2022-07-12T14:38:35;1.92;;;1.13;;
33672;SDS011;20011;51.510;9.942;2022-07-12T14:41:02;1.48;;;1.30;;
33672;SDS011;20011;51.510;9.942;2022-07-12T14:43:30;1.17;;;1.10;;
33672;SDS011;20011;51.510;9.942;2022-07-12T14:45:57;1.08;;;1.08;;
33672;SDS011;20011;51.510;9.942;2022-07-12T14:48:25;0.82;;;0.82;;
33672;SDS011;20011;51.510;9.942;2022-07-12T14:50:52;2.05;;;0.93;;
33672;SDS011;20011;51.510;9.942;2022-07-12T14:53:19;8.30;;;1.27;;
33672;SDS011;20011;51.510;9.942;2022-07-12T14:55:46;1.45;;;1.02;;
33672;SDS011;20011;51.510;9.942;2022-07-12T14:58:15;1.05;;;0.70;;
33672;SDS011;20011;51.510;9.942;2022-07-12T15:00:43;0.75;;;0.63;;
33672;SDS011;20011;51.510;9.942;2022-07-12T15:03:10;0.95;;;0.88;;
33672;SDS011;20011;51.510;9.942;2022-07-12T15:05:38;0.93;;;0.88;;
33672;SDS011;20011;51.510;9.942;2022-07-12T15:08:06;1.30;;;1.10;;
33672;SDS011;20011;51.510;9.942;2022-07-12T15:10:35;3.05;;;0.80;;
33672;SDS011;20011;51.510;9.942;2022-07-12T15:13:03;1.27;;;1.17;;
33672;SDS011;20011;51.510;9.942;2022-07-12T15:15:31;1.35;;;0.80;;
33672;SDS011;20011;51.510;9.942;2022-07-12T15:18:00;1.10;;;1.00;;
33672;SDS011;20011;51.510;9.942;2022-07-12T15:20:28;0.63;;;0.63;;
33672;SDS011;20011;51.510;9.942;2022-07-12T15:22:59;0.75;;;0.75;;
33672;SDS011;20011;51.510;9.942;2022-07-12T15:25:30;0.80;;;0.80;;
33672;SDS011;20011;51.510;9.942;2022-07-12T15:27:58;1.17;;;1.08;;
33672;SDS011;20011;51.510;9.942;2022-07-12T15:30:26;8.40;;;2.35;;
33672;SDS011;20011;51.510;9.942;2022-07-12T15:32:53;2.13;;;0.98;;
33672;SDS011;20011;51.510;9.942;2022-07-12T15:35:22;2.55;;;1.20;;
33672;SDS011;20011;51.510;9.942;2022-07-12T15:37:50;2.53;;;1.50;;
33672;SDS011;20011;51.510;9.942;2022-07-12T15:40:18;5.25;;;1.00;;